首页
METAR-TAF:

METAR-TAF

机场 :

羅馬-菲烏米奇諾機場

罗马菲乌米奇诺, 意大利

纬度: 41-48N, 经度: 012-14E, 海拔: 2米

当前天气观测

该预报发布于33分钟前的21:20 UTC
风速4节,风向西北
温度 8°C
湿度 93%
气压 1020 hPa
能见度10公里或以上
1500米以下无云,无积雨云

METAR: LIRF 262120Z 31004KT CAVOK 08/07 Q1020 NOSIG

时间: 22:53 (21:53 UTC)

预报

该预报发布于4小时和53分钟前的17:00 UTC
预报有效从26日的 18点(UTC)到 27日的 24点(UTC)
风速5节,风向多变
能见度10公里或以上
散云层高于2000英尺
散云层高于4000英尺
成为
从 26日的 19点(UTC)到 26日的 21点(UTC)
能見度: 2000
轻雾
短暂存在
从 27日的 00点(UTC)到 27日的 07点(UTC)
能見度: 0800
多云层高于800英尺
成为
从 27日的 07点(UTC)到 27日的 09点(UTC)
能見度: 6000
成为
从 27日的 20点(UTC)到 27日的 22点(UTC)
风速10节,风向南转西南
短暂存在
从 27日的 21点(UTC)到 27日的 24点(UTC)
能見度: 4000
阵雨

TAF: LIRF 261700Z 2618/2724 VRB05KT 9999 SCT020 SCT040 BECMG 2619/2621 2000 BR TEMPO 2700/2707 0800 FG BKN008 BECMG 2707/2709 6000 BECMG 2720/2722 20010KT TEMPO 2721/2724 4000 SHRA

超过4000个机场的气象观测和天气预报(METAR&TAF报告)。

可查询的气象台以黄色和红色小点在地图上表示。

将鼠标移到小点上方,可查看气象台名称。

然后点击查看天气观测和预报。

如需切换地图:点击带黑十字的绿色按钮放大地图;点击带横线的绿色按钮缩小地图;或者点击绿色箭头查看邻近地区的地图。


METAR-TAF: